| time (UTC) | temp F | wind direction | speed knots | gust knots | rain 1hr in | rain 24hr in | rain mn in | humidity % | barometer mb |
| 20260902140004 | 80 | 227 | 10.4 | 20.0 | 0.00 | 0.00 | 0.00 | 72 | 1023.1 |
| 20260902135003 | 80 | 214 | 8.7 | 20.0 | 0.00 | 0.00 | 0.00 | 72 | 1023.3 |
| 20260902134004 | 80 | 189 | 7.8 | 20.0 | 0.00 | 0.00 | 0.00 | 70 | 1023.2 |
| 20260902133004 | 80 | 196 | 8.7 | 18.2 | 0.00 | 0.00 | 0.00 | 71 | 1023.5 |
| 20260902132003 | 80 | 183 | 11.3 | 18.2 | 0.00 | 0.00 | 0.00 | 71 | 1023.6 |
| 20260902131003 | 79 | 221 | 7.8 | 20.0 | 0.00 | 0.00 | 0.00 | 72 | 1023.6 |
| 20260902130003 | 80 | 225 | 11.3 | 20.0 | 0.00 | 0.00 | 0.00 | 71 | 1023.7 |
| 20260902125004 | 80 | 213 | 7.8 | 24.3 | 0.00 | 0.00 | 0.00 | 71 | 1023.6 |
| 20260902124004 | 80 | 177 | 10.4 | 18.2 | 0.00 | 0.00 | 0.00 | 71 | 1023.6 |
| 20260902123003 | 80 | 166 | 10.4 | 15.6 | 0.00 | 0.00 | 0.00 | 70 | 1023.7 |
| 20260902122004 | 80 | 173 | 7.0 | 20.0 | 0.00 | 0.00 | 0.00 | 71 | 1023.7 |
| 20260902121004 | 80 | 193 | 7.8 | 20.0 | 0.00 | 0.00 | 0.00 | 71 | 1023.8 |
| 20260902120004 | 80 | 218 | 6.1 | 18.2 | 0.00 | 0.00 | 0.00 | 72 | 1023.8 |
| 20260902115004 | 79 | 189 | 12.2 | 15.6 | 0.00 | 0.00 | 0.00 | 72 | 1024.2 |
| 20260902114003 | 79 | 173 | 10.4 | 20.0 | 0.00 | 0.00 | 0.00 | 73 | 1024.0 |
| 20260902113004 | 79 | 247 | 8.7 | 15.6 | 0.00 | 0.00 | 0.00 | 71 | 1023.9 |
| 20260902103003 | 78 | 166 | 7.0 | 12.2 | 0.00 | 0.00 | 0.00 | 72 | 1024.2 |
| 20260902102004 | 78 | 208 | 5.2 | 12.2 | 0.00 | 0.00 | 0.00 | 73 | 1024.3 |
| 20260902101004 | 77 | 175 | 5.2 | 15.6 | 0.00 | 0.00 | 0.00 | 74 | 1024.3 |
| 20260902100004 | 76 | 186 | 8.7 | 12.2 | 0.00 | 0.00 | 0.00 | 75 | 1024.3 |
| 20260902095004 | 76 | 168 | 6.1 | 12.2 | 0.00 | 0.00 | 0.00 | 76 | 1024.3 |
| 20260902094004 | 76 | 183 | 2.6 | 12.2 | 0.00 | 0.00 | 0.00 | 77 | 1024.3 |
| 20260902091004 | 74 | 189 | 7.8 | 13.9 | 0.00 | 0.00 | 0.00 | 82 | 1024.5 |
| 20260902090004 | 73 | 228 | 7.0 | 15.6 | 0.00 | 0.00 | 0.00 | 82 | 1024.5 |
| 20260902085004 | 74 | 183 | 7.0 | 18.2 | 0.00 | 0.00 | 0.00 | 83 | 1024.3 |
| 20260902084004 | 74 | 198 | 7.0 | 15.6 | 0.00 | 0.00 | 0.00 | 82 | 1024.4 |
| 20260902083003 | 74 | 203 | 7.8 | 15.6 | 0.00 | 0.00 | 0.00 | 81 | 1024.2 |
| 20260902082004 | 73 | 250 | 5.2 | 12.2 | 0.00 | 0.00 | 0.00 | 82 | 1024.5 |
| 20260902080004 | 74 | 242 | 2.6 | 7.8 | 0.00 | 0.00 | 0.00 | 81 | 1023.9 |
| 20260902075003 | 72 | 209 | 1.7 | 4.3 | 0.00 | 0.00 | 0.00 | 82 | 1023.8 |
| 20260902074004 | 71 | 182 | 1.7 | 4.3 | 0.00 | 0.00 | 0.00 | 84 | 1023.7 |
| 20260902073004 | 71 | 355 | 0.9 | 1.7 | 0.00 | 0.00 | 0.00 | 84 | 1023.8 |
| 20260902072004 | 70 | 66 | 0.9 | 1.7 | 0.00 | 0.00 | 0.00 | 87 | 1023.8 |
| 20260902071004 | 69 | 327 | 0.9 | 6.1 | 0.00 | 0.00 | 0.00 | 89 | 1023.5 |
| 20260901170004 | 75 | 168 | 6.1 | 18.2 | 0.00 | 0.00 | 0.00 | 80 | 1021.1 |